Time;durP1;ratioP1;P1;durP2;ratioP2;P2;SDS_P1;SDS_P2;PMS_P1;PMS_P2;Temp;Humidity;BMP_temperature;BMP_pressure;BME280_temperature;BME280_humidity;BME280_pressure;Samples;Min_cycle;Max_cycle;Signal;HPM_P1;HPM_P2
2022/06/09 00:02:00;;;;;;;;;;;;;;;;;;6183428;23;19931;-69
2022/06/09 00:04:26;;;;;;;;;;;;;;;;;;6132559;23;19936;-68
2022/06/09 00:06:52;;;;;;;;;;;;;;;;;;6184075;23;19927;-68
2022/06/09 00:09:18;;;;;;;;;;;;;;;;;;6183162;23;19963;-69
2022/06/09 00:11:45;;;;;;;;;;;;;;;;;;6183062;23;19919;-68
2022/06/09 00:14:11;;;;;;;;;;;;;;;;;;6156651;23;20080;-68
2022/06/09 00:16:37;;;;;;;;;;;;;;;;;;6182892;23;19924;-69
2022/06/09 00:19:03;;;;;;;;;;;;;;;;;;6156195;23;19916;-69
2022/06/09 00:21:28;;;;;;;;;;;;;;;;;;6183307;23;20010;-69
2022/06/09 00:23:54;;;;;;;;;;;;;;;;;;6155516;23;20334;-69
2022/06/09 00:26:20;;;;;;;;;;;;;;;;;;6182900;23;19922;-69
2022/06/09 00:28:46;;;;;;;;;;;;;;;;;;6182514;23;19920;-69
2022/06/09 00:31:12;;;;;;;;;;;;;;;;;;6156317;23;19987;-69
2022/06/09 00:33:38;;;;;;;;;;;;;;;;;;6182822;23;19990;-69
2022/06/09 00:36:04;;;;;;;;;;;;;;;;;;6181925;23;19991;-69
2022/06/09 00:38:30;;;;;;;;;;;;;;;;;;6182153;23;20360;-69
2022/06/09 00:40:56;;;;;;;;;;;;;;;;;;6155537;23;20289;-70
2022/06/09 00:43:22;;;;;;;;;;;;;;;;;;6182231;23;20268;-69
2022/06/09 00:45:50;;;;;;;;;;;;;;;;;;6182433;23;19916;-69
2022/06/09 00:48:16;;;;;;;;;;;;;;;;;;6155905;23;20333;-69
2022/06/09 00:50:42;;;;;;;;;;;;;;;;;;6182670;23;19942;-69
2022/06/09 00:53:08;;;;;;;;;;;;;;;;;;6181619;23;19912;-69
2022/06/09 00:55:33;;;;;;;;;;;;;;;;;;6182259;23;19927;-69
2022/06/09 00:58:02;;;;;;;;;;;;;;;;;;6155421;23;19923;-69
2022/06/09 01:00:29;;;;;;;;;;;;;;;;;;6182520;23;19916;-69
2022/06/09 01:02:54;;;;;;;;;;;;;;;;;;6182420;23;19970;-69
2022/06/09 01:05:20;;;;;;;;;;;;;;;;;;6155569;23;19916;-69
2022/06/09 01:07:46;;;;;;;;;;;;;;;;;;6181952;23;19927;-69
2022/06/09 01:10:12;;;;;;;;;;;;;;;;;;6182157;23;20356;-69
2022/06/09 01:12:38;;;;;;;;;;;;;;;;;;6182343;23;20256;-68
2022/06/09 01:15:04;;;;;;;;;;;;;;;;;;6182306;23;19999;-68
2022/06/09 01:17:30;;;;;;;;;;;;;;;;;;6155686;23;19955;-69
2022/06/09 01:19:56;;;;;;;;;;;;;;;;;;6155915;23;19999;-69
2022/06/09 01:22:22;;;;;;;;;;;;;;;;;;6181820;23;19920;-69
2022/06/09 01:24:48;;;;;;;;;;;;;;;;;;6182441;23;19920;-69
2022/06/09 01:27:14;;;;;;;;;;;;;;;;;;6182347;23;20391;-69
2022/06/09 01:29:40;;;;;;;;;;;;;;;;;;6182543;23;19916;-69
2022/06/09 01:32:06;;;;;;;;;;;;;;;;;;6182114;23;19952;-69
2022/06/09 01:34:32;;;;;;;;;;;;;;;;;;6182442;23;19944;-69
2022/06/09 01:36:58;;;;;;;;;;;;;;;;;;6181404;23;19916;-69
2022/06/09 01:39:24;;;;;;;;;;;;;;;;;;6182029;23;20285;-69
2022/06/09 01:41:49;;;;;;;;;;;;;;;;;;6181977;23;20245;-69
2022/06/09 01:44:16;;;;;;;;;;;;;;;;;;6155969;23;19963;-69
2022/06/09 01:46:42;;;;;;;;;;;;;;;;;;6155673;23;19917;-69
2022/06/09 01:49:10;;;;;;;;;;;;;;;;;;6181866;23;19916;-69
2022/06/09 01:51:36;;;;;;;;;;;;;;;;;;6155044;23;19923;-69
2022/06/09 01:54:02;;;;;;;;;;;;;;;;;;6181974;23;19999;-69
2022/06/09 01:56:28;;;;;;;;;;;;;;;;;;6155489;23;20379;-69
2022/06/09 01:58:54;;;;;;;;;;;;;;;;;;6155689;23;20388;-69
2022/06/09 02:01:19;;;;;;;;;;;;;;;;;;6181924;23;19916;-69
2022/06/09 02:03:45;;;;;;;;;;;;;;;;;;6155506;23;19916;-69
2022/06/09 02:06:11;;;;;;;;;;;;;;;;;;6181802;23;19917;-69
2022/06/09 02:08:38;;;;;;;;;;;;;;;;;;6155853;23;19920;-69
2022/06/09 02:11:03;;;;;;;;;;;;;;;;;;6157353;23;20392;-69
2022/06/09 02:13:29;;;;;;;;;;;;;;;;;;6183668;23;19920;-69
2022/06/09 02:15:55;;;;;;;;;;;;;;;;;;6183578;23;19920;-69
2022/06/09 02:18:21;;;;;;;;;;;;;;;;;;6184133;23;19968;-69
2022/06/09 02:20:47;;;;;;;;;;;;;;;;;;6183327;23;20341;-69
2022/06/09 02:23:13;;;;;;;;;;;;;;;;;;6183575;23;19957;-68
2022/06/09 02:25:39;;;;;;;;;;;;;;;;;;6184152;23;19951;-69
2022/06/09 02:28:05;;;;;;;;;;;;;;;;;;6183449;23;19982;-68
2022/06/09 02:30:31;;;;;;;;;;;;;;;;;;6183760;23;19983;-69
2022/06/09 02:32:57;;;;;;;;;;;;;;;;;;6183882;23;19923;-69
2022/06/09 02:35:22;;;;;;;;;;;;;;;;;;6183061;23;20278;-69
2022/06/09 02:37:48;;;;;;;;;;;;;;;;;;6183718;23;19990;-69
2022/06/09 02:40:14;;;;;;;;;;;;;;;;;;6156847;23;19916;-68
2022/06/09 02:42:40;;;;;;;;;;;;;;;;;;6183616;23;20322;-68
2022/06/09 02:45:06;;;;;;;;;;;;;;;;;;6156933;23;19988;-68
2022/06/09 02:47:32;;;;;;;;;;;;;;;;;;6183680;23;19916;-69
2022/06/09 02:49:58;;;;;;;;;;;;;;;;;;6183199;23;19923;-68
2022/06/09 02:52:24;;;;;;;;;;;;;;;;;;6156855;23;19916;-69
2022/06/09 02:54:50;;;;;;;;;;;;;;;;;;6156902;23;19916;-69
2022/06/09 02:57:16;;;;;;;;;;;;;;;;;;6156949;23;19916;-68
2022/06/09 02:59:42;;;;;;;;;;;;;;;;;;6183535;23;19916;-69
2022/06/09 03:02:08;;;;;;;;;;;;;;;;;;6183244;23;19926;-68
2022/06/09 03:04:34;;;;;;;;;;;;;;;;;;6182633;23;20296;-69
2022/06/09 03:07:00;;;;;;;;;;;;;;;;;;6157137;23;19916;-69
2022/06/09 03:09:26;;;;;;;;;;;;;;;;;;6183373;23;19923;-69
2022/06/09 03:11:52;;;;;;;;;;;;;;;;;;6132216;23;19917;-69
2022/06/09 03:14:18;;;;;;;;;;;;;;;;;;6183439;23;19922;-69
2022/06/09 03:16:44;;;;;;;;;;;;;;;;;;6183287;23;19938;-68
2022/06/09 03:19:10;;;;;;;;;;;;;;;;;;6183291;23;19916;-68
2022/06/09 03:21:36;;;;;;;;;;;;;;;;;;6183168;23;20168;-68
2022/06/09 03:24:01;;;;;;;;;;;;;;;;;;6183217;23;20318;-69
2022/06/09 03:26:27;;;;;;;;;;;;;;;;;;6156885;23;19916;-69
2022/06/09 03:28:53;;;;;;;;;;;;;;;;;;6156533;23;20028;-69
2022/06/09 03:31:19;;;;;;;;;;;;;;;;;;6156497;23;19963;-69
2022/06/09 03:33:46;;;;;;;;;;;;;;;;;;6182983;23;19998;-69
2022/06/09 03:36:13;;;;;;;;;;;;;;;;;;6182981;23;19920;-69
2022/06/09 03:38:40;;;;;;;;;;;;;;;;;;6183080;23;19962;-69
2022/06/09 03:41:07;;;;;;;;;;;;;;;;;;6183512;23;19922;-68
2022/06/09 03:43:34;;;;;;;;;;;;;;;;;;6156607;23;19990;-69
2022/06/09 03:46:00;;;;;;;;;;;;;;;;;;6182849;23;19916;-69
2022/06/09 03:48:26;;;;;;;;;;;;;;;;;;6155795;23;20289;-69
2022/06/09 03:50:52;;;;;;;;;;;;;;;;;;6183279;23;19916;-69
2022/06/09 03:53:18;;;;;;;;;;;;;;;;;;6156339;23;19916;-69
2022/06/09 03:55:44;;;;;;;;;;;;;;;;;;6182893;23;19916;-69
2022/06/09 03:58:10;;;;;;;;;;;;;;;;;;6156039;23;19916;-69
2022/06/09 04:00:36;;;;;;;;;;;;;;;;;;6180739;23;19920;-68
2022/06/09 04:03:02;;;;;;;;;;;;;;;;;;6155496;23;20214;-68
2022/06/09 04:05:28;;;;;;;;;;;;;;;;;;6182236;23;20326;-68
2022/06/09 04:07:54;;;;;;;;;;;;;;;;;;6183083;23;19954;-68
2022/06/09 04:10:20;;;;;;;;;;;;;;;;;;6182604;23;19988;-68
2022/06/09 04:12:46;;;;;;;;;;;;;;;;;;6156322;23;20277;-68
2022/06/09 04:15:12;;;;;;;;;;;;;;;;;;6182456;23;19923;-69
2022/06/09 04:17:38;;;;;;;;;;;;;;;;;;6155347;23;19951;-69
2022/06/09 04:20:04;;;;;;;;;;;;;;;;;;6156390;23;19916;-68
2022/06/09 04:22:30;;;;;;;;;;;;;;;;;;6155900;23;20213;-68
2022/06/09 04:24:56;;;;;;;;;;;;;;;;;;6182567;23;19916;-69
2022/06/09 04:27:22;;;;;;;;;;;;;;;;;;6182371;23;19923;-68
2022/06/09 04:29:48;;;;;;;;;;;;;;;;;;6182456;23;19917;-69
2022/06/09 04:32:14;;;;;;;;;;;;;;;;;;6182721;23;19922;-68
2022/06/09 04:34:40;;;;;;;;;;;;;;;;;;6182430;23;20288;-69
2022/06/09 04:37:05;;;;;;;;;;;;;;;;;;6156104;23;20245;-69
2022/06/09 04:39:31;;;;;;;;;;;;;;;;;;6182841;23;19957;-70
2022/06/09 04:41:57;;;;;;;;;;;;;;;;;;6182379;23;20259;-68
2022/06/09 04:44:24;;;;;;;;;;;;;;;;;;6155066;23;19916;-68
2022/06/09 04:46:50;;;;;;;;;;;;;;;;;;6182589;23;19916;-69
2022/06/09 04:49:15;;;;;;;;;;;;;;;;;;6182552;23;19923;-68
2022/06/09 04:51:41;;;;;;;;;;;;;;;;;;6182764;23;19916;-68
2022/06/09 04:54:07;;;;;;;;;;;;;;;;;;6155864;23;19999;-69
2022/06/09 04:56:33;;;;;;;;;;;;;;;;;;6182781;23;20321;-68
2022/06/09 04:58:59;;;;;;;;;;;;;;;;;;6181928;23;19923;-69
2022/06/09 05:01:25;;;;;;;;;;;;;;;;;;6156112;23;20219;-68
2022/06/09 05:03:51;;;;;;;;;;;;;;;;;;6182549;23;19920;-69
2022/06/09 05:06:18;;;;;;;;;;;;;;;;;;6182347;23;19920;-69
2022/06/09 05:08:44;;;;;;;;;;;;;;;;;;6182534;23;19916;-67
2022/06/09 05:11:10;;;;;;;;;;;;;;;;;;6182756;23;19946;-69
2022/06/09 05:13:36;;;;;;;;;;;;;;;;;;6155114;23;20220;-68
2022/06/09 05:16:01;;;;;;;;;;;;;;;;;;6182146;23;20242;-68
2022/06/09 05:18:27;;;;;;;;;;;;;;;;;;6155537;23;19926;-69
2022/06/09 05:20:53;;;;;;;;;;;;;;;;;;6156134;23;19917;-68
2022/06/09 05:23:19;;;;;;;;;;;;;;;;;;6181937;23;19922;-68
2022/06/09 05:25:45;;;;;;;;;;;;;;;;;;6155840;23;19987;-68
2022/06/09 05:28:11;;;;;;;;;;;;;;;;;;6181580;23;19912;-68
2022/06/09 05:30:37;;;;;;;;;;;;;;;;;;6181857;23;19962;-68
2022/06/09 05:33:03;;;;;;;;;;;;;;;;;;6182631;23;19923;-69
2022/06/09 05:35:29;;;;;;;;;;;;;;;;;;6182283;23;19916;-69
2022/06/09 05:46:09;;;;;;;;;;;;;;;;;;6183970;23;20328;-68
2022/06/09 05:48:34;;;;;;;;;;;;;;;;;;6183953;23;19916;-68
2022/06/09 05:51:01;;;;;;;;;;;;;;;;;;6184321;23;20241;-68
2022/06/09 05:53:27;;;;;;;;;;;;;;;;;;6184042;23;19920;-68
2022/06/09 05:55:52;;;;;;;;;;;;;;;;;;6184005;23;19991;-68
2022/06/09 05:58:18;;;;;;;;;;;;;;;;;;6183831;23;19916;-68
2022/06/09 06:00:45;;;;;;;;;;;;;;;;;;6157796;23;19916;-68
2022/06/09 06:03:12;;;;;;;;;;;;;;;;;;6184149;23;19958;-68
2022/06/09 06:08:23;;;;;;;;;;;;;;;;;;6183898;23;20289;-68
2022/06/09 06:10:48;;;;;;;;;;;;;;;;;;6157416;23;19916;-68
2022/06/09 06:13:14;;;;;;;;;;;;;;;;;;6183848;23;19924;-68
2022/06/09 06:15:40;;;;;;;;;;;;;;;;;;6183897;23;19932;-68
2022/06/09 06:18:06;;;;;;;;;;;;;;;;;;6183925;23;19923;-69
2022/06/09 06:20:32;;;;;;;;;;;;;;;;;;6157548;23;20253;-68
2022/06/09 06:22:58;;;;;;;;;;;;;;;;;;6183450;23;20253;-69
2022/06/09 06:25:24;;;;;;;;;;;;;;;;;;6157286;23;19916;-69
2022/06/09 06:27:50;;;;;;;;;;;;;;;;;;6156632;23;19924;-69
2022/06/09 06:30:16;;;;;;;;;;;;;;;;;;6184729;23;19917;-68
2022/06/09 06:32:42;;;;;;;;;;;;;;;;;;6157130;23;19946;-69
2022/06/09 06:35:08;;;;;;;;;;;;;;;;;;6157356;23;19916;-69
2022/06/09 06:37:33;;;;;;;;;;;;;;;;;;6183250;23;20329;-69
2022/06/09 06:39:59;;;;;;;;;;;;;;;;;;6157047;23;19916;-68
2022/06/09 06:42:25;;;;;;;;;;;;;;;;;;6156898;23;19999;-69
2022/06/09 06:44:51;;;;;;;;;;;;;;;;;;6156979;23;19916;-69
2022/06/09 06:47:17;;;;;;;;;;;;;;;;;;6183761;23;19960;-69
2022/06/09 06:49:43;;;;;;;;;;;;;;;;;;6183187;23;19916;-69
2022/06/09 06:52:09;;;;;;;;;;;;;;;;;;6183518;23;19916;-69
2022/06/09 06:54:35;;;;;;;;;;;;;;;;;;6156971;23;19912;-69
2022/06/09 06:57:05;;;;;;;;;;;;;;;;;;6155638;23;20245;-69
2022/06/09 06:59:30;;;;;;;;;;;;;;;;;;6183589;23;19951;-68
2022/06/09 07:01:56;;;;;;;;;;;;;;;;;;6182955;23;20315;-68
2022/06/09 07:04:22;;;;;;;;;;;;;;;;;;6183397;23;19916;-68
2022/06/09 07:06:48;;;;;;;;;;;;;;;;;;6157164;23;19916;-69
2022/06/09 07:09:14;;;;;;;;;;;;;;;;;;6183543;23;19916;-69
2022/06/09 07:11:40;;;;;;;;;;;;;;;;;;6182560;23;19995;-69
2022/06/09 07:14:06;;;;;;;;;;;;;;;;;;6183235;23;20302;-68
2022/06/09 07:16:33;;;;;;;;;;;;;;;;;;6156739;23;19923;-68
2022/06/09 07:18:58;;;;;;;;;;;;;;;;;;6156694;23;19946;-68
2022/06/09 07:21:24;;;;;;;;;;;;;;;;;;6156676;23;20317;-68
2022/06/09 07:23:50;;;;;;;;;;;;;;;;;;6182683;23;19963;-69
2022/06/09 07:26:16;;;;;;;;;;;;;;;;;;6183290;23;19971;-68
2022/06/09 07:28:42;;;;;;;;;;;;;;;;;;6182647;23;20400;-68
2022/06/09 07:31:08;;;;;;;;;;;;;;;;;;6132018;23;20211;-69
2022/06/09 07:33:34;;;;;;;;;;;;;;;;;;6182800;23;19951;-69
2022/06/09 07:36:00;;;;;;;;;;;;;;;;;;6156432;23;19916;-69
2022/06/09 07:38:26;;;;;;;;;;;;;;;;;;6182663;23;19916;-69
2022/06/09 07:40:52;;;;;;;;;;;;;;;;;;6156328;23;19916;-68
2022/06/09 07:43:19;;;;;;;;;;;;;;;;;;6183304;23;19920;-69
2022/06/09 07:45:44;;;;;;;;;;;;;;;;;;6182675;23;19923;-69
2022/06/09 07:48:11;;;;;;;;;;;;;;;;;;6156651;23;19916;-69
2022/06/09 07:50:37;;;;;;;;;;;;;;;;;;6156214;23;20068;-69
2022/06/09 07:53:02;;;;;;;;;;;;;;;;;;6182246;23;20271;-69
2022/06/09 07:55:28;;;;;;;;;;;;;;;;;;6156403;23;19920;-69
2022/06/09 07:57:54;;;;;;;;;;;;;;;;;;6182702;23;20242;-69
2022/06/09 08:00:21;;;;;;;;;;;;;;;;;;6183279;23;19969;-69
2022/06/09 08:02:47;;;;;;;;;;;;;;;;;;6182996;23;19931;-68
2022/06/09 08:05:13;;;;;;;;;;;;;;;;;;6182362;23;19916;-69
2022/06/09 08:07:39;;;;;;;;;;;;;;;;;;6182189;23;19995;-69
2022/06/09 08:10:05;;;;;;;;;;;;;;;;;;6182869;23;19975;-69
2022/06/09 08:12:31;;;;;;;;;;;;;;;;;;6156084;23;19946;-69
2022/06/09 08:14:57;;;;;;;;;;;;;;;;;;6156135;23;19920;-69
2022/06/09 08:17:23;;;;;;;;;;;;;;;;;;6155922;23;20314;-69
2022/06/09 08:19:49;;;;;;;;;;;;;;;;;;6182898;23;19923;-68
2022/06/09 08:22:15;;;;;;;;;;;;;;;;;;6155485;23;19939;-69
2022/06/09 08:24:40;;;;;;;;;;;;;;;;;;6183092;23;19916;-68
2022/06/09 08:27:06;;;;;;;;;;;;;;;;;;6182678;23;19923;-69
2022/06/09 08:29:32;;;;;;;;;;;;;;;;;;6182643;23;19920;-68
2022/06/09 08:31:58;;;;;;;;;;;;;;;;;;6156221;23;19917;-69
2022/06/09 08:34:24;;;;;;;;;;;;;;;;;;6155737;23;19923;-67
2022/06/09 08:36:50;;;;;;;;;;;;;;;;;;6181654;23;19962;-69
2022/06/09 08:39:16;;;;;;;;;;;;;;;;;;6182609;23;20069;-68
2022/06/09 08:41:42;;;;;;;;;;;;;;;;;;6182696;23;19923;-68
2022/06/09 08:44:08;;;;;;;;;;;;;;;;;;6182782;23;20241;-69
2022/06/09 08:46:34;;;;;;;;;;;;;;;;;;6155760;23;19920;-69
2022/06/09 08:49:00;;;;;;;;;;;;;;;;;;6182372;23;19959;-68
2022/06/09 08:51:26;;;;;;;;;;;;;;;;;;6130909;23;19920;-69
2022/06/09 08:53:52;;;;;;;;;;;;;;;;;;6182240;23;20426;-69
2022/06/09 08:56:18;;;;;;;;;;;;;;;;;;6155627;23;20036;-68
2022/06/09 08:58:44;;;;;;;;;;;;;;;;;;6182382;23;19916;-68
2022/06/09 09:01:10;;;;;;;;;;;;;;;;;;6182653;23;20211;-69
2022/06/09 09:03:36;;;;;;;;;;;;;;;;;;6182041;23;19966;-69
2022/06/09 09:06:04;;;;;;;;;;;;;;;;;;6182069;23;20337;-69
2022/06/09 09:08:30;;;;;;;;;;;;;;;;;;6182238;23;19934;-69
2022/06/09 09:10:56;;;;;;;;;;;;;;;;;;6155845;23;19973;-69
2022/06/09 09:13:22;;;;;;;;;;;;;;;;;;6155666;23;20263;-69
2022/06/09 09:15:47;;;;;;;;;;;;;;;;;;6182370;23;19966;-69
2022/06/09 09:18:13;;;;;;;;;;;;;;;;;;6155674;23;19951;-69
2022/06/09 09:20:39;;;;;;;;;;;;;;;;;;6133221;23;20376;-69
2022/06/09 09:23:05;;;;;;;;;;;;;;;;;;6184567;23;19947;-68
2022/06/09 09:25:31;;;;;;;;;;;;;;;;;;6187000;23;20242;-68
2022/06/09 09:27:57;;;;;;;;;;;;;;;;;;6187203;23;19920;-68
2022/06/09 09:30:23;;;;;;;;;;;;;;;;;;6185078;23;19920;-68
2022/06/09 09:32:49;;;;;;;;;;;;;;;;;;6184326;23;19916;-68
2022/06/09 09:35:15;;;;;;;;;;;;;;;;;;6183710;23;20340;-69
2022/06/09 09:37:44;;;;;;;;;;;;;;;;;;6157468;23;19916;-69
2022/06/09 09:40:10;;;;;;;;;;;;;;;;;;6184217;23;19916;-70
2022/06/09 09:42:37;;;;;;;;;;;;;;;;;;6184647;23;19928;-70
2022/06/09 09:45:03;;;;;;;;;;;;;;;;;;6157176;23;19916;-69
2022/06/09 09:47:29;;;;;;;;;;;;;;;;;;6184075;23;19927;-69
2022/06/09 09:49:55;;;;;;;;;;;;;;;;;;6157150;23;19916;-69
2022/06/09 09:52:21;;;;;;;;;;;;;;;;;;6157593;23;20219;-69
2022/06/09 09:54:47;;;;;;;;;;;;;;;;;;6184198;23;20008;-69
2022/06/09 09:57:12;;;;;;;;;;;;;;;;;;6184041;23;19916;-70
2022/06/09 09:59:38;;;;;;;;;;;;;;;;;;6183873;23;19916;-70
2022/06/09 10:10:35;;;;;;;;;;;;;;;;;;6092663;23;19917;-69
2022/06/09 10:13:01;;;;;;;;;;;;;;;;;;6092574;23;20366;-69
2022/06/09 10:15:27;;;;;;;;;;;;;;;;;;6068390;23;19921;-69
2022/06/09 10:17:53;;;;;;;;;;;;;;;;;;6067773;23;19917;-68
2022/06/09 10:20:19;;;;;;;;;;;;;;;;;;6092131;23;19953;-68
2022/06/09 10:22:45;;;;;;;;;;;;;;;;;;6092420;23;19917;-68
2022/06/09 10:25:10;;;;;;;;;;;;;;;;;;6092368;23;19944;-67
2022/06/09 10:27:37;;;;;;;;;;;;;;;;;;6092243;23;20336;-68
2022/06/09 10:30:03;;;;;;;;;;;;;;;;;;6068210;23;19925;-68
2022/06/09 10:32:29;;;;;;;;;;;;;;;;;;6067604;23;19917;-68
2022/06/09 10:34:55;;;;;;;;;;;;;;;;;;6092545;23;20258;-68
2022/06/09 10:37:25;;;;;;;;;;;;;;;;;;6067834;23;19917;-68
2022/06/09 10:39:50;;;;;;;;;;;;;;;;;;6166591;23;19916;-70
2022/06/09 10:42:16;;;;;;;;;;;;;;;;;;6183680;23;20284;-68
2022/06/09 10:44:42;;;;;;;;;;;;;;;;;;6156860;23;19916;-69
2022/06/09 10:55:24;;;;;;;;;;;;;;;;;;6157099;23;20322;-68
2022/06/09 10:57:50;;;;;;;;;;;;;;;;;;6183395;23;19990;-69
2022/06/09 11:00:16;;;;;;;;;;;;;;;;;;6156835;23;20273;-69
2022/06/09 11:02:42;;;;;;;;;;;;;;;;;;6182357;23;19991;-69
2022/06/09 11:05:08;;;;;;;;;;;;;;;;;;6156884;23;19952;-69
2022/06/09 11:07:34;;;;;;;;;;;;;;;;;;6156870;23;19995;-69
2022/06/09 11:10:00;;;;;;;;;;;;;;;;;;6156754;23;19920;-68
2022/06/09 11:12:26;;;;;;;;;;;;;;;;;;6183310;23;20125;-69
2022/06/09 11:14:51;;;;;;;;;;;;;;;;;;6183143;23;19917;-69
2022/06/09 11:17:17;;;;;;;;;;;;;;;;;;6156333;23;19995;-69
2022/06/09 12:25:11;;;;;;;6.68;2.20;;;;;;;;;;5087704;27;20429;-69
2022/06/09 12:27:37;;;;;;;3.38;1.05;;;;;;;;;;5082815;28;20391;-70
2022/06/09 12:30:03;;;;;;;4.45;1.13;;;;;;;;;;5086279;28;20131;-69
2022/06/09 12:32:44;;;;;;;15.85;3.50;;;;;;;;;;5087686;28;20423;-70
2022/06/09 12:35:22;;;;;;;3.30;1.10;;;;;;;;;;5087516;28;20051;-69
2022/06/09 12:37:56;;;;;;;8.77;1.52;;;;;;;;;;5069201;28;20044;-69
2022/06/09 12:40:24;;;;;;;5.78;1.50;;;;;;;;;;5087900;28;20044;-69
2022/06/09 12:42:58;;;;;;;4.68;1.20;;;;;;;;;;5086653;28;20043;-69
2022/06/09 12:45:24;;;;;;;4.43;1.23;;;;;;;;;;5085970;28;20045;-70
2022/06/09 12:47:53;;;;;;;5.00;1.92;;;;;;;;;;5059851;28;20064;-70
2022/06/09 12:50:22;;;;;;;5.13;1.30;;;;;;;;;;5082329;28;20051;-68
2022/06/09 12:52:51;;;;;;;3.20;1.05;;;;;;;;;;5099639;28;20048;-70
2022/06/09 12:55:24;;;;;;;7.18;1.48;;;;;;;;;;5067145;28;20056;-69
2022/06/09 12:57:52;;;;;;;3.58;1.40;;;;;;;;;;5066739;28;20052;-69
2022/06/09 13:00:38;;;;;;;5.45;1.00;;;;;;;;;;5062811;28;20060;-70
2022/06/09 13:03:21;;;;;;;3.63;0.98;;;;;;;;;;5086626;28;20051;-69
2022/06/09 13:05:47;;;;;;;3.75;0.90;;;;;;;;;;5086157;28;20516;-69
2022/06/09 13:08:13;;;;;;;2.17;0.80;;;;;;;;;;5086111;28;20097;-69
2022/06/09 13:10:40;;;;;;;2.90;0.93;;;;;;;;;;5084103;28;20044;-70
2022/06/09 13:13:14;;;;;;;4.78;0.98;;;;;;;;;;5084682;28;20045;-69
2022/06/09 13:15:43;;;;;;;4.47;0.90;;;;;;;;;;5086454;28;20083;-70
2022/06/09 13:18:12;;;;;;;2.85;0.73;;;;;;;;;;5085212;28;20377;-69
2022/06/09 13:20:39;;;;;;;4.00;0.90;;;;;;;;;;5072946;28;20055;-69
2022/06/09 13:23:06;;;;;;;5.22;1.35;;;;;;;;;;5072210;28;20052;-69
2022/06/09 13:25:32;;;;;;;4.82;1.17;;;;;;;;;;5071717;28;20132;-70
2022/06/09 13:27:58;;;;;;;5.82;1.38;;;;;;;;;;5072371;28;20047;-69
2022/06/09 13:30:32;;;;;;;4.55;1.10;;;;;;;;;;5072270;28;20384;-69
2022/06/09 13:32:58;;;;;;;3.58;1.00;;;;;;;;;;5070789;28;20045;-70
2022/06/09 13:35:36;;;;;;;5.00;0.90;;;;;;;;;;5072163;28;20040;-70
2022/06/09 13:38:02;;;;;;;4.45;1.17;;;;;;;;;;5071919;28;20393;-69
2022/06/09 13:40:39;;;;;;;7.50;1.60;;;;;;;;;;5071896;28;20047;-70
2022/06/09 13:43:15;;;;;;;2.88;0.95;;;;;;;;;;5072035;28;20523;-70
2022/06/09 13:45:41;;;;;;;3.67;1.05;;;;;;;;;;5072135;28;20044;-70
2022/06/09 13:48:07;;;;;;;6.00;1.35;;;;;;;;;;5071696;28;20045;-70
2022/06/09 13:50:35;;;;;;;15.93;4.22;;;;;;;;;;5071271;28;20052;-69
2022/06/09 13:53:22;;;;;;;4.80;1.08;;;;;;;;;;5052794;28;20138;-69
2022/06/09 13:55:48;;;;;;;13.82;3.35;;;;;;;;;;5052100;28;20130;-69
2022/06/09 13:58:14;;;;;;;5.20;1.85;;;;;;;;;;5052451;28;20064;-69
2022/06/09 14:00:47;;;;;;;6.10;1.55;;;;;;;;;;5052477;28;20052;-70
2022/06/09 14:03:22;;;;;;;2.92;1.05;;;;;;;;;;5052318;28;20045;-70
2022/06/09 14:05:51;;;;;;;3.95;0.98;;;;;;;;;;5050929;28;20053;-69
2022/06/09 14:08:17;;;;;;;10.88;2.45;;;;;;;;;;5052274;28;20045;-70
2022/06/09 14:10:43;;;;;;;4.43;1.10;;;;;;;;;;5061520;28;20045;-69
2022/06/09 14:13:09;;;;;;;4.80;1.13;;;;;;;;;;5063512;28;20080;-69
2022/06/09 14:15:35;;;;;;;5.57;1.85;;;;;;;;;;5065458;28;20077;-69
2022/06/09 14:18:02;;;;;;;6.35;1.52;;;;;;;;;;5065746;28;20040;-68
2022/06/09 14:20:30;;;;;;;7.28;1.85;;;;;;;;;;5066095;28;20705;-70
2022/06/09 14:22:56;;;;;;;15.30;4.50;;;;;;;;;;5063308;28;20045;-69
2022/06/09 14:25:23;;;;;;;9.60;2.95;;;;;;;;;;5064583;28;20055;-69
2022/06/09 14:27:49;;;;;;;8.13;1.63;;;;;;;;;;5068867;28;20033;-69
2022/06/09 14:30:17;;;;;;;9.07;2.25;;;;;;;;;;5065796;28;20044;-70
2022/06/09 14:32:43;;;;;;;;;;;;;;;;;;5066897;28;20029;-70
2022/06/09 14:35:14;;;;;;;8.10;2.50;;;;;;;;;;5065725;28;19928;-69
2022/06/09 14:37:40;;;;;;;6.93;1.40;;;;;;;;;;5061706;28;20063;-70
2022/06/09 14:40:17;;;;;;;6.60;1.20;;;;;;;;;;5067823;28;20044;-68
2022/06/09 14:42:43;;;;;;;30.02;8.68;;;;;;;;;;5063343;28;20045;-70
2022/06/09 14:45:09;;;;;;;10.18;2.13;;;;;;;;;;5066035;28;20041;-70
2022/06/09 14:47:35;;;;;;;6.88;1.50;;;;;;;;;;5063681;28;20059;-70
2022/06/09 14:50:01;;;;;;;4.88;1.33;;;;;;;;;;5063877;28;20040;-70
2022/06/09 14:52:27;;;;;;;4.25;1.25;;;;;;;;;;5064090;28;20044;-70
2022/06/09 14:54:54;;;;;;;5.43;1.60;;;;;;;;;;5065500;28;20101;-70
2022/06/09 14:57:20;;;;;;;7.82;2.03;;;;;;;;;;5060513;28;20053;-70
2022/06/09 14:59:48;;;;;;;5.97;1.27;;;;;;;;;;5051392;28;20041;-70
2022/06/09 15:02:18;;;;;;;7.72;1.50;;;;;;;;;;5050000;28;20098;-70
2022/06/09 15:04:44;;;;;;;8.52;1.98;;;;;;;;;;5057920;28;20041;-70
2022/06/09 15:07:15;;;;;;;9.07;2.25;;;;;;;;;;5064701;28;20051;-70
2022/06/09 15:09:42;;;;;;;11.55;2.55;;;;;;;;;;5065711;28;20044;-69
2022/06/09 15:12:08;;;;;;;8.07;2.15;;;;;;;;;;5066146;28;20097;-69
2022/06/09 15:14:34;;;;;;;5.45;1.55;;;;;;;;;;5064360;28;20051;-69
2022/06/09 15:17:00;;;;;;;5.50;1.25;;;;;;;;;;5065396;28;20036;-69
2022/06/09 15:19:27;;;;;;;5.28;1.38;;;;;;;;;;5066360;28;20041;-71
2022/06/09 15:21:53;;;;;;;3.90;1.20;;;;;;;;;;5066596;28;20124;-70
2022/06/09 15:24:21;;;;;;;6.63;1.42;;;;;;;;;;5066868;28;20135;-70
2022/06/09 15:26:47;;;;;;;5.78;1.45;;;;;;;;;;5065498;28;20057;-70
2022/06/09 15:29:13;;;;;;;9.23;2.65;;;;;;;;;;5065650;28;20036;-69
2022/06/09 15:31:39;;;;;;;7.72;1.33;;;;;;;;;;5059700;28;20049;-70
2022/06/09 15:34:06;;;;;;;6.82;1.75;;;;;;;;;;5069692;28;20044;-70
2022/06/09 15:36:32;;;;;;;6.03;1.63;;;;;;;;;;5063207;28;20122;-70
2022/06/09 15:38:58;;;;;;;4.30;1.10;;;;;;;;;;5063288;28;20412;-70
2022/06/09 15:41:26;;;;;;;5.65;1.20;;;;;;;;;;5065642;28;20049;-70
2022/06/09 15:43:52;;;;;;;5.22;1.20;;;;;;;;;;5048056;28;20177;-69
2022/06/09 15:46:18;;;;;;;7.80;1.75;;;;;;;;;;5064611;28;20094;-69
2022/06/09 15:48:44;;;;;;;6.47;1.55;;;;;;;;;;5043441;28;20048;-70
2022/06/09 15:51:11;;;;;;;7.53;1.38;;;;;;;;;;5063154;28;20146;-70
2022/06/09 15:53:37;;;;;;;5.90;1.50;;;;;;;;;;5056238;28;20103;-70
2022/06/09 15:56:05;;;;;;;6.75;1.45;;;;;;;;;;5053307;28;20058;-69
2022/06/09 15:58:31;;;;;;;;;;;;;;;;;;5057713;28;20060;-69
2022/06/09 16:00:58;;;;;;;6.90;1.60;;;;;;;;;;5049350;28;19921;-69
2022/06/09 16:03:24;;;;;;;7.15;1.60;;;;;;;;;;5049194;28;20056;-69
2022/06/09 16:05:50;;;;;;;6.25;2.25;;;;;;;;;;5048652;28;20128;-69
2022/06/09 16:08:17;;;;;;;8.40;1.85;;;;;;;;;;5048917;28;20503;-70
2022/06/09 16:10:48;;;;;;;7.85;2.17;;;;;;;;;;5050294;28;20496;-69
2022/06/09 16:13:14;;;;;;;8.73;1.60;;;;;;;;;;5048765;28;20060;-70
2022/06/09 16:15:42;;;;;;;8.75;1.70;;;;;;;;;;5049089;28;20405;-70
2022/06/09 16:18:08;;;;;;;6.32;1.55;;;;;;;;;;5049216;28;20056;-70
2022/06/09 16:20:36;;;;;;;5.28;1.45;;;;;;;;;;5048603;28;20040;-69
2022/06/09 16:23:02;;;;;;;8.63;1.90;;;;;;;;;;5049074;28;20459;-69
2022/06/09 16:25:28;;;;;;;5.75;1.70;;;;;;;;;;5048977;28;20055;-70
2022/06/09 16:27:54;;;;;;;7.75;1.60;;;;;;;;;;5050282;28;20048;-70
2022/06/09 16:30:22;;;;;;;5.30;1.70;;;;;;;;;;5048687;28;20088;-69
2022/06/09 16:32:48;;;;;;;7.82;1.63;;;;;;;;;;5050198;28;20342;-70
2022/06/09 16:35:14;;;;;;;8.00;2.03;;;;;;;;;;5049344;28;20065;-70
2022/06/09 16:37:41;;;;;;;12.57;2.28;;;;;;;;;;5050250;28;20153;-70
2022/06/09 16:40:09;;;;;;;5.35;1.33;;;;;;;;;;5048683;28;20080;-71
2022/06/09 16:42:35;;;;;;;4.78;1.48;;;;;;;;;;5048655;28;20052;-70
2022/06/09 16:45:01;;;;;;;10.30;2.53;;;;;;;;;;5032059;28;20057;-70
2022/06/09 16:47:27;;;;;;;8.18;2.00;;;;;;;;;;5049816;28;20045;-70
2022/06/09 16:49:53;;;;;;;8.65;1.80;;;;;;;;;;5049320;28;20053;-71
2022/06/09 16:52:19;;;;;;;6.18;1.20;;;;;;;;;;5049900;28;20041;-70
2022/06/09 16:54:45;;;;;;;9.95;2.00;;;;;;;;;;5049221;28;20102;-69
2022/06/09 16:57:12;;;;;;;5.38;1.33;;;;;;;;;;5071543;28;20053;-70
2022/06/09 16:59:38;;;;;;;8.43;1.80;;;;;;;;;;5072729;28;20086;-70
2022/06/09 17:02:04;;;;;;;6.47;1.52;;;;;;;;;;5072842;28;20044;-70
2022/06/09 17:04:30;;;;;;;9.52;3.35;;;;;;;;;;5072110;28;20148;-70
2022/06/09 17:06:58;;;;;;;4.60;1.38;;;;;;;;;;5072701;28;20052;-70
2022/06/09 17:09:24;;;;;;;8.55;2.03;;;;;;;;;;5071112;28;20428;-70
2022/06/09 17:11:50;;;;;;;8.50;1.77;;;;;;;;;;5071181;28;20049;-70
2022/06/09 17:14:17;;;;;;;8.73;1.92;;;;;;;;;;5070861;28;20089;-70
2022/06/09 17:16:43;;;;;;;7.78;1.92;;;;;;;;;;5072340;28;20057;-70
2022/06/09 17:19:09;;;;;;;5.05;1.40;;;;;;;;;;5071879;28;20054;-70
2022/06/09 17:21:36;;;;;;;11.98;1.90;;;;;;;;;;5070835;28;20040;-70
2022/06/09 17:24:03;;;;;;;8.00;1.90;;;;;;;;;;5071061;28;20052;-69
2022/06/09 17:26:30;;;;;;;9.10;1.70;;;;;;;;;;5070960;28;20045;-69
2022/06/09 17:28:56;;;;;;;14.55;3.10;;;;;;;;;;5054101;28;20056;-69
2022/06/09 17:31:22;;;;;;;6.53;1.58;;;;;;;;;;5072319;28;20473;-70